createdAt,value
2017-12-13T00:02:01.198Z,5.55
2017-12-13T00:04:30.435Z,4.87
2017-12-13T00:07:00.192Z,5.43
2017-12-13T00:09:30.196Z,5.40
2017-12-13T00:11:59.493Z,5.80
2017-12-13T00:14:28.703Z,5.37
2017-12-13T00:16:57.984Z,5.60
2017-12-13T00:19:27.221Z,6.07
2017-12-13T00:21:56.603Z,6.05
2017-12-13T00:24:26.627Z,7.22
2017-12-13T00:26:55.916Z,6.10
2017-12-13T00:29:25.181Z,6.65
2017-12-13T00:31:54.455Z,5.40
2017-12-13T00:34:23.863Z,5.87
2017-12-13T00:36:53.105Z,6.32
2017-12-13T00:39:22.410Z,5.65
2017-12-13T00:41:52.434Z,6.40
2017-12-13T00:44:22.471Z,6.25
2017-12-13T00:46:51.838Z,5.45
2017-12-13T00:49:21.291Z,5.80
2017-12-13T00:51:50.653Z,5.72
2017-12-13T00:54:20.671Z,5.53
2017-12-13T00:56:49.921Z,6.70
2017-12-13T00:59:19.191Z,6.55
2017-12-13T01:01:48.443Z,4.97
2017-12-13T01:04:17.679Z,5.75
2017-12-13T01:06:47.709Z,4.80
2017-12-13T01:09:16.951Z,5.18
2017-12-13T01:11:46.221Z,6.12
2017-12-13T01:14:15.479Z,5.68
2017-12-13T01:16:44.793Z,6.10
2017-12-13T01:19:14.835Z,6.68
2017-12-13T01:21:44.171Z,7.30
2017-12-13T01:24:14.239Z,5.75
2017-12-13T01:26:43.498Z,5.72
2017-12-13T01:29:12.761Z,5.10
2017-12-13T01:31:42.023Z,4.72
2017-12-13T01:34:12.058Z,6.00
2017-12-13T01:36:41.293Z,5.90
2017-12-13T01:39:10.577Z,4.53
2017-12-13T01:41:39.805Z,4.50
2017-12-13T01:44:09.080Z,4.35
2017-12-13T01:46:38.359Z,3.40
2017-12-13T01:49:07.606Z,4.40
2017-12-13T01:51:36.858Z,4.00
2017-12-13T01:54:06.136Z,3.30
2017-12-13T01:56:36.146Z,3.22
2017-12-13T01:59:05.427Z,3.50
2017-12-13T02:01:34.712Z,4.30
2017-12-13T02:04:03.952Z,3.75
2017-12-13T02:06:33.208Z,3.12
2017-12-13T02:09:02.438Z,3.35
2017-12-13T02:11:31.698Z,4.00
2017-12-13T02:14:00.956Z,3.53
2017-12-13T02:16:30.229Z,3.67
2017-12-13T02:18:59.563Z,3.75
2017-12-13T02:21:28.814Z,3.90
2017-12-13T02:23:58.106Z,3.05
2017-12-13T02:26:27.378Z,3.40
2017-12-13T02:28:56.625Z,3.62
2017-12-13T02:31:25.864Z,3.30
2017-12-13T02:33:55.132Z,3.62
2017-12-13T02:36:25.241Z,3.50
2017-12-13T02:38:54.498Z,3.35
2017-12-13T02:41:23.745Z,3.37
2017-12-13T02:43:53.121Z,3.10
2017-12-13T02:46:22.352Z,3.45
2017-12-13T02:48:52.381Z,3.25
2017-12-13T02:51:22.430Z,4.07
2017-12-13T02:53:51.671Z,3.40
2017-12-13T02:56:20.916Z,3.70
2017-12-13T02:58:50.182Z,3.70
2017-12-13T03:01:19.438Z,3.95
2017-12-13T03:03:48.702Z,3.65
2017-12-13T03:06:17.961Z,3.35
2017-12-13T03:08:47.221Z,3.70
2017-12-13T03:11:16.484Z,2.97
2017-12-13T03:13:46.523Z,3.47
2017-12-13T03:16:15.767Z,3.05
2017-12-13T03:18:45.019Z,3.58
2017-12-13T03:21:14.265Z,2.90
2017-12-13T03:23:43.511Z,3.95
2017-12-13T03:26:12.780Z,3.95
2017-12-13T03:28:42.054Z,3.10
2017-12-13T03:31:11.286Z,3.80
2017-12-13T03:33:41.326Z,3.00
2017-12-13T03:36:10.572Z,3.60
2017-12-13T03:38:39.834Z,3.60
2017-12-13T03:41:09.080Z,2.30
2017-12-13T03:43:38.344Z,3.00
2017-12-13T03:46:07.606Z,2.85
2017-12-13T03:48:37.621Z,3.22
2017-12-13T03:51:06.889Z,3.58
2017-12-13T03:53:36.132Z,2.80
2017-12-13T03:56:06.173Z,3.03
2017-12-13T03:58:35.441Z,3.00
2017-12-13T04:01:05.455Z,3.45
2017-12-13T04:03:35.506Z,3.20
2017-12-13T04:06:04.771Z,3.47
2017-12-13T04:08:34.795Z,2.97
2017-12-13T04:11:04.815Z,2.90
2017-12-13T04:13:34.838Z,2.95
2017-12-13T04:16:04.080Z,3.00
2017-12-13T04:18:33.317Z,3.25
2017-12-13T04:21:03.424Z,3.40
2017-12-13T04:23:32.678Z,2.87
2017-12-13T04:26:01.935Z,2.60
2017-12-13T04:28:31.950Z,3.22
2017-12-13T04:31:01.993Z,3.17
2017-12-13T04:33:32.070Z,2.90
2017-12-13T04:36:01.329Z,2.72
2017-12-13T04:38:30.569Z,2.92
2017-12-13T04:40:59.860Z,2.53
2017-12-13T04:43:29.106Z,2.95
2017-12-13T04:45:58.345Z,3.28
2017-12-13T04:48:27.595Z,2.87
2017-12-13T04:50:56.834Z,2.95
2017-12-13T04:53:26.082Z,2.85
2017-12-13T04:55:56.110Z,3.47
2017-12-13T04:58:25.387Z,2.67
2017-12-13T05:00:54.621Z,2.40
2017-12-13T05:05:59.239Z,2.80
2017-12-13T05:08:29.262Z,2.92
2017-12-13T05:10:59.316Z,2.90
2017-12-13T05:13:28.567Z,2.75
2017-12-13T05:15:57.818Z,3.00
2017-12-13T05:18:27.057Z,2.97
2017-12-13T05:20:57.082Z,2.75
2017-12-13T05:23:26.358Z,2.78
2017-12-13T05:25:55.601Z,2.90
2017-12-13T05:28:24.856Z,3.10
2017-12-13T05:30:54.100Z,3.55
2017-12-13T05:33:23.343Z,3.47
2017-12-13T05:35:52.602Z,3.58
2017-12-13T05:38:21.859Z,3.40
2017-12-13T05:40:51.109Z,3.10
2017-12-13T05:43:20.474Z,2.95
2017-12-13T05:45:50.493Z,3.45
2017-12-13T05:48:20.537Z,2.47
2017-12-13T05:50:50.436Z,3.30
2017-12-13T05:53:20.451Z,3.00
2017-12-13T05:55:50.469Z,3.28
2017-12-13T05:58:20.491Z,2.40
2017-12-13T06:00:49.781Z,2.37
2017-12-13T06:03:19.041Z,3.03
2017-12-13T06:05:48.293Z,3.12
2017-12-13T06:08:17.551Z,3.00
2017-12-13T06:10:46.833Z,3.42
2017-12-13T06:13:16.087Z,2.85
2017-12-13T06:15:46.114Z,3.05
2017-12-13T06:18:15.369Z,2.67
2017-12-13T06:20:44.597Z,3.30
2017-12-13T06:23:14.630Z,2.95
2017-12-13T06:25:43.898Z,3.22
2017-12-13T06:28:13.913Z,4.12
2017-12-13T06:30:43.939Z,5.25
2017-12-13T06:33:13.952Z,3.60
2017-12-13T06:35:43.973Z,3.00
2017-12-13T06:38:14.019Z,3.62
2017-12-13T06:40:43.313Z,3.97
2017-12-13T06:43:12.500Z,3.33
2017-12-13T06:45:42.517Z,3.87
2017-12-13T06:48:11.770Z,4.25
2017-12-13T06:50:41.003Z,3.50
2017-12-13T06:53:11.019Z,3.97
2017-12-13T06:55:41.066Z,3.35
2017-12-13T06:58:10.333Z,4.30
2017-12-13T07:00:40.354Z,4.28
2017-12-13T07:03:10.355Z,4.22
2017-12-13T07:05:39.621Z,3.78
2017-12-13T07:08:08.865Z,4.70
2017-12-13T07:10:39.468Z,3.83
2017-12-13T07:13:08.718Z,4.97
2017-12-13T07:15:37.970Z,4.18
2017-12-13T07:18:07.237Z,4.07
2017-12-13T07:20:38.526Z,3.60
2017-12-13T07:23:08.608Z,5.25
2017-12-13T07:25:37.865Z,3.87
2017-12-13T07:28:07.870Z,3.72
2017-12-13T07:30:37.129Z,4.55
2017-12-13T07:33:06.394Z,4.15
2017-12-13T07:35:35.647Z,4.20
2017-12-13T07:38:04.975Z,4.35
2017-12-13T07:40:34.212Z,4.15
2017-12-13T07:43:03.456Z,4.60
2017-12-13T07:45:32.728Z,5.10
2017-12-13T07:48:02.003Z,4.60
2017-12-13T07:50:31.252Z,4.57
2017-12-13T07:53:00.525Z,4.55
2017-12-13T07:55:29.763Z,5.65
2017-12-13T07:57:59.803Z,4.00
2017-12-13T08:00:28.340Z,4.22
2017-12-13T08:02:57.379Z,3.35
2017-12-13T08:05:26.661Z,3.95
2017-12-13T08:07:56.694Z,4.55
2017-12-13T08:10:25.952Z,4.68
2017-12-13T08:12:55.201Z,5.07
2017-12-13T08:15:24.451Z,4.60
2017-12-13T08:17:53.721Z,5.07
2017-12-13T08:20:22.975Z,5.65
2017-12-13T08:22:53.027Z,5.80
2017-12-13T08:25:22.267Z,5.97
2017-12-13T08:27:51.522Z,7.18
2017-12-13T08:30:20.787Z,6.35
2017-12-13T08:32:50.808Z,5.15
2017-12-13T08:35:20.846Z,6.80
2017-12-13T08:37:50.809Z,4.62
2017-12-13T08:40:20.833Z,4.72
2017-12-13T08:42:50.084Z,4.57
2017-12-13T08:45:19.330Z,5.15
2017-12-13T08:47:48.591Z,5.85
2017-12-13T08:50:17.849Z,5.30
2017-12-13T08:52:47.888Z,4.53
2017-12-13T08:55:17.903Z,4.85
2017-12-13T08:57:47.923Z,4.93
2017-12-13T09:00:17.175Z,4.60
2017-12-13T09:02:47.006Z,3.70
2017-12-13T09:05:16.267Z,3.22
2017-12-13T09:07:45.523Z,3.30
2017-12-13T09:10:15.544Z,3.30
2017-12-13T09:12:45.570Z,4.18
2017-12-13T09:15:14.813Z,3.85
2017-12-13T09:17:44.075Z,4.55
2017-12-13T09:20:13.328Z,3.85
2017-12-13T09:22:42.623Z,3.92
2017-12-13T09:25:11.879Z,3.10
2017-12-13T09:27:41.136Z,3.53
2017-12-13T09:30:10.417Z,3.55
2017-12-13T09:32:39.676Z,4.10
2017-12-13T09:35:08.947Z,4.37
2017-12-13T09:37:38.996Z,4.37
2017-12-13T09:40:08.230Z,3.37
2017-12-13T09:42:37.487Z,4.05
2017-12-13T09:45:06.761Z,3.53
2017-12-13T09:47:36.783Z,3.78
2017-12-13T09:50:06.795Z,4.07
2017-12-13T09:52:36.816Z,4.12
2017-12-13T09:55:06.816Z,4.00
2017-12-13T09:57:36.932Z,3.12
2017-12-13T10:00:06.189Z,3.30
2017-12-13T10:02:35.443Z,3.10
2017-12-13T10:05:05.468Z,4.15
2017-12-13T10:07:35.483Z,4.30
2017-12-13T10:10:05.525Z,3.53
2017-12-13T10:12:34.784Z,3.05
2017-12-13T10:15:04.062Z,3.47
2017-12-13T10:17:33.329Z,3.05
2017-12-13T10:20:02.580Z,3.30
2017-12-13T10:22:31.816Z,2.80
2017-12-13T10:25:01.227Z,3.08
2017-12-13T10:27:30.760Z,3.33
2017-12-13T10:30:00.785Z,3.58
2017-12-13T10:32:30.078Z,2.83
2017-12-13T10:34:59.319Z,3.40
2017-12-13T10:37:29.332Z,2.90
2017-12-13T10:40:00.201Z,2.92
2017-12-13T10:42:29.470Z,3.22
2017-12-13T10:44:59.507Z,3.05
2017-12-13T10:47:28.774Z,2.90
2017-12-13T10:49:58.040Z,2.60
2017-12-13T10:52:27.276Z,2.95
2017-12-13T10:54:57.972Z,2.85
2017-12-13T10:57:27.222Z,2.95
2017-12-13T10:59:57.233Z,3.35
2017-12-13T11:02:27.267Z,2.90
2017-12-13T11:04:56.529Z,3.10
2017-12-13T11:07:25.814Z,2.75
2017-12-13T11:09:55.088Z,3.10
2017-12-13T11:12:24.322Z,2.50
2017-12-13T11:14:53.570Z,3.10
2017-12-13T11:17:22.856Z,3.47
2017-12-13T11:19:52.871Z,3.00
2017-12-13T11:22:22.899Z,3.10
2017-12-13T11:24:52.156Z,3.40
2017-12-13T11:27:21.426Z,2.75
2017-12-13T11:29:50.687Z,3.65
2017-12-13T11:32:19.955Z,2.85
2017-12-13T11:34:49.184Z,2.50
2017-12-13T11:37:18.450Z,2.60
2017-12-13T11:39:47.688Z,3.00
2017-12-13T11:42:16.943Z,2.92
2017-12-13T11:44:46.190Z,3.33
2017-12-13T11:47:15.438Z,3.15
2017-12-13T11:49:45.432Z,3.10
2017-12-13T11:52:15.324Z,2.60
2017-12-13T11:54:47.118Z,2.70
2017-12-13T11:57:16.383Z,2.35
2017-12-13T11:59:45.637Z,2.83
2017-12-13T12:02:15.759Z,2.80
2017-12-13T12:04:45.026Z,2.90
2017-12-13T12:07:14.270Z,2.65
2017-12-13T12:09:44.305Z,2.45
2017-12-13T12:12:14.340Z,2.92
2017-12-13T12:14:43.606Z,2.80
2017-12-13T12:17:13.664Z,3.37
2017-12-13T12:19:42.904Z,2.83
2017-12-13T12:22:12.136Z,2.65
2017-12-13T12:24:41.407Z,2.60
2017-12-13T12:27:10.658Z,2.30
2017-12-13T12:29:39.889Z,2.62
2017-12-13T12:32:09.189Z,2.70
2017-12-13T12:34:38.415Z,3.03
2017-12-13T12:37:08.416Z,3.05
2017-12-13T12:39:37.673Z,3.45
2017-12-13T12:42:06.933Z,2.87
2017-12-13T12:44:36.978Z,2.85
2017-12-13T12:47:06.219Z,2.70
2017-12-13T12:49:35.459Z,2.55
2017-12-13T12:52:04.724Z,3.40
2017-12-13T12:54:33.956Z,3.17
2017-12-13T12:57:03.194Z,2.90
2017-12-13T12:59:32.452Z,2.70
2017-12-13T13:02:02.483Z,3.17
2017-12-13T13:04:31.748Z,2.70
2017-12-13T13:07:01.017Z,2.78
2017-12-13T13:09:30.270Z,2.60
2017-12-13T13:12:00.288Z,2.55
2017-12-13T13:14:30.326Z,3.20
2017-12-13T13:16:59.594Z,2.97
2017-12-13T13:19:29.610Z,3.00
2017-12-13T13:21:59.640Z,2.92
2017-12-13T13:24:29.644Z,3.28
2017-12-13T13:26:59.640Z,2.87
2017-12-13T13:29:28.941Z,2.62
2017-12-13T13:31:58.174Z,2.33
2017-12-13T13:34:27.430Z,2.00
2017-12-13T13:36:56.676Z,2.50
2017-12-13T13:39:25.934Z,2.90
2017-12-13T13:41:55.186Z,2.45
2017-12-13T13:44:24.435Z,2.40
2017-12-13T13:46:53.693Z,2.80
2017-12-13T13:49:22.943Z,2.10
2017-12-13T13:51:52.987Z,2.17
2017-12-13T13:54:22.252Z,2.55
2017-12-13T13:56:51.492Z,2.40
2017-12-13T13:59:20.735Z,2.37
2017-12-13T14:01:49.990Z,2.90
2017-12-13T14:04:19.234Z,2.65
2017-12-13T14:06:48.484Z,2.75
2017-12-13T14:09:17.730Z,2.75
2017-12-13T14:11:46.983Z,2.50
2017-12-13T14:14:16.243Z,2.85
2017-12-13T14:16:45.485Z,2.90
2017-12-13T14:19:14.747Z,3.00
2017-12-13T14:21:44.036Z,3.03
2017-12-13T14:24:13.265Z,2.67
2017-12-13T14:26:43.312Z,2.45
2017-12-13T14:29:12.561Z,3.15
2017-12-13T14:31:41.830Z,3.15
2017-12-13T14:34:11.904Z,2.80
2017-12-13T14:36:41.918Z,2.70
2017-12-13T14:39:11.929Z,3.22
2017-12-13T14:41:41.967Z,3.35
2017-12-13T14:44:11.258Z,3.00
2017-12-13T14:46:41.824Z,2.90
2017-12-13T14:49:11.093Z,3.20
2017-12-13T14:51:40.356Z,2.90
2017-12-13T14:54:10.429Z,3.05
2017-12-13T14:56:39.706Z,3.08
2017-12-13T14:59:09.695Z,2.95
2017-12-13T15:01:40.514Z,3.45
2017-12-13T15:04:09.781Z,3.65
2017-12-13T15:06:39.035Z,2.97
2017-12-13T15:09:08.274Z,3.25
2017-12-13T15:11:37.529Z,3.15
2017-12-13T15:14:07.746Z,3.67
2017-12-13T15:16:36.985Z,3.53
2017-12-13T15:19:06.230Z,3.42
2017-12-13T15:21:35.490Z,4.28
2017-12-13T15:24:04.750Z,3.10
2017-12-13T15:26:34.806Z,3.35
2017-12-13T15:29:04.066Z,3.47
2017-12-13T15:31:34.107Z,4.35
2017-12-13T15:34:03.341Z,3.75
2017-12-13T15:36:32.580Z,3.40
2017-12-13T15:39:02.622Z,3.55
2017-12-13T15:41:31.867Z,3.22
2017-12-13T15:44:01.121Z,3.75
2017-12-13T15:46:30.375Z,3.85
2017-12-13T15:48:59.637Z,3.85
2017-12-13T15:51:28.903Z,3.72
2017-12-13T15:53:58.935Z,4.03
2017-12-13T15:56:28.184Z,4.10
2017-12-13T15:58:57.415Z,3.90
2017-12-13T16:01:27.450Z,3.87
2017-12-13T16:03:56.746Z,3.92
2017-12-13T16:06:25.936Z,4.22
2017-12-13T16:08:55.948Z,4.37
2017-12-13T16:11:25.986Z,4.22
2017-12-13T16:13:55.230Z,4.53
2017-12-13T16:16:24.484Z,5.40
2017-12-13T16:18:53.740Z,4.55
2017-12-13T16:21:23.778Z,4.97
2017-12-13T16:23:53.027Z,5.03
2017-12-13T16:26:22.280Z,5.10
2017-12-13T16:28:52.308Z,4.95
2017-12-13T16:31:21.561Z,4.62
2017-12-13T16:33:51.588Z,4.90
2017-12-13T16:36:20.856Z,4.90
2017-12-13T16:38:50.103Z,4.85
2017-12-13T16:41:20.141Z,5.40
2017-12-13T16:43:49.404Z,4.25
2017-12-13T16:46:18.666Z,4.03
2017-12-13T16:48:47.905Z,4.32
2017-12-13T16:51:17.349Z,4.25
2017-12-13T16:53:47.466Z,3.60
2017-12-13T16:56:17.463Z,3.65
2017-12-13T16:58:47.463Z,4.03
2017-12-13T17:01:17.628Z,3.10
2017-12-13T17:03:46.903Z,3.50
2017-12-13T17:06:16.141Z,3.70
2017-12-13T17:08:45.534Z,4.15
2017-12-13T17:11:14.785Z,3.42
2017-12-13T17:13:44.791Z,3.90
2017-12-13T17:16:14.055Z,4.50
2017-12-13T17:18:44.070Z,3.97
2017-12-13T17:21:13.438Z,3.72
2017-12-13T17:23:43.910Z,3.90
2017-12-13T17:26:13.192Z,4.60
2017-12-13T17:28:42.476Z,4.65
2017-12-13T17:31:12.652Z,3.60
2017-12-13T17:33:41.905Z,4.18
2017-12-13T17:36:11.265Z,4.35
2017-12-13T17:38:40.536Z,4.25
2017-12-13T17:41:09.816Z,3.72
2017-12-13T17:43:39.064Z,3.30
2017-12-13T17:46:08.304Z,4.03
2017-12-13T17:48:37.555Z,4.25
2017-12-13T17:51:06.808Z,5.07
2017-12-13T17:53:36.147Z,5.40
2017-12-13T17:56:05.397Z,4.00
2017-12-13T17:58:34.666Z,3.60
2017-12-13T18:01:04.067Z,4.65
2017-12-13T18:03:33.305Z,4.75
2017-12-13T18:06:02.561Z,4.50
2017-12-13T18:08:31.826Z,3.55
2017-12-13T18:11:01.065Z,9.15
2017-12-13T18:13:30.305Z,4.18
2017-12-13T18:15:59.554Z,3.87
2017-12-13T18:18:28.823Z,3.15
2017-12-13T18:20:58.053Z,5.65
2017-12-13T18:23:27.293Z,4.45
2017-12-13T18:25:56.539Z,5.82
2017-12-13T18:28:25.782Z,8.00
2017-12-13T18:30:55.030Z,3.50
2017-12-13T18:33:25.052Z,6.68
2017-12-13T18:35:54.287Z,3.55
2017-12-13T18:38:23.558Z,6.45
2017-12-13T18:40:52.847Z,3.03
2017-12-13T18:43:22.085Z,3.70
2017-12-13T18:45:52.087Z,3.28
2017-12-13T18:48:21.355Z,4.60
2017-12-13T18:50:50.610Z,4.00
2017-12-13T18:53:19.859Z,2.87
2017-12-13T18:55:49.105Z,5.32
2017-12-13T18:58:19.138Z,3.90
2017-12-13T19:00:48.375Z,3.60
2017-12-13T19:03:17.619Z,3.80
2017-12-13T19:05:47.648Z,3.17
2017-12-13T19:08:16.880Z,3.05
2017-12-13T19:10:46.129Z,3.40
2017-12-13T19:13:15.391Z,4.15
2017-12-13T19:15:44.643Z,7.25
2017-12-13T19:18:13.910Z,4.25
2017-12-13T19:20:43.195Z,3.58
2017-12-13T19:23:12.468Z,3.30
2017-12-13T19:25:41.692Z,3.15
2017-12-13T19:28:10.990Z,3.12
2017-12-13T19:30:40.248Z,3.62
2017-12-13T19:33:09.489Z,6.15
2017-12-13T19:35:38.767Z,2.62
2017-12-13T19:38:08.776Z,3.47
2017-12-13T19:40:38.029Z,2.90
2017-12-13T19:43:08.060Z,2.40
2017-12-13T19:45:38.089Z,2.95
2017-12-13T19:48:07.354Z,2.75
2017-12-13T19:50:36.614Z,2.10
2017-12-13T19:53:05.853Z,2.92
2017-12-13T19:55:35.103Z,2.10
2017-12-13T19:58:04.358Z,2.72
2017-12-13T20:00:34.396Z,2.30
2017-12-13T20:03:03.652Z,2.20
2017-12-13T20:05:32.901Z,2.20
2017-12-13T20:08:02.142Z,2.20
2017-12-13T20:10:31.404Z,3.20
2017-12-13T20:13:00.714Z,2.37
2017-12-13T20:15:30.689Z,2.30
2017-12-13T20:17:59.947Z,1.92
2017-12-13T20:20:29.201Z,2.05
2017-12-13T20:22:59.271Z,1.85
2017-12-13T20:25:28.569Z,1.65
2017-12-13T20:27:57.835Z,1.90
2017-12-13T20:30:27.066Z,1.87
2017-12-13T20:32:56.313Z,1.77
2017-12-13T20:35:25.568Z,2.17
2017-12-13T20:37:54.815Z,1.50
2017-12-13T20:40:24.074Z,1.60
2017-12-13T20:42:53.336Z,1.40
2017-12-13T20:45:22.597Z,1.50
2017-12-13T20:47:52.626Z,1.42
2017-12-13T20:50:21.894Z,1.65
2017-12-13T20:52:51.160Z,1.65
2017-12-13T20:55:20.399Z,1.70
2017-12-13T20:57:49.670Z,1.73
2017-12-13T21:00:18.924Z,1.87
2017-12-13T21:02:48.194Z,1.30
2017-12-13T21:05:17.447Z,2.08
2017-12-13T21:07:46.689Z,1.50
2017-12-13T21:10:16.740Z,1.45
2017-12-13T21:12:45.987Z,1.30
2017-12-13T21:15:15.261Z,1.30
2017-12-13T21:17:44.512Z,1.40
2017-12-13T21:20:13.750Z,1.80
2017-12-13T21:22:42.990Z,1.50
2017-12-13T21:25:12.244Z,1.60
2017-12-13T21:27:41.507Z,1.70
2017-12-13T21:30:10.758Z,1.48
2017-12-13T21:32:40.007Z,1.42
2017-12-13T21:35:10.050Z,1.60
2017-12-13T21:37:39.286Z,1.60
2017-12-13T21:40:08.515Z,1.67
2017-12-13T21:42:38.662Z,1.40
2017-12-13T21:45:07.918Z,1.40
2017-12-13T21:47:37.165Z,1.35
2017-12-13T21:50:06.412Z,1.23
2017-12-13T21:52:35.683Z,1.20
2017-12-13T21:55:05.779Z,1.23
2017-12-13T21:57:35.002Z,1.45
2017-12-13T22:00:04.313Z,1.65
2017-12-13T22:02:34.322Z,1.58
2017-12-13T22:05:03.567Z,1.48
2017-12-13T22:07:32.788Z,1.40
2017-12-13T22:10:02.047Z,1.40
2017-12-13T22:12:31.314Z,1.55
2017-12-13T22:15:00.590Z,1.45
2017-12-13T22:20:06.160Z,1.23
2017-12-13T22:22:36.172Z,1.40
2017-12-13T22:25:05.426Z,1.40
2017-12-13T22:27:34.674Z,1.40
2017-12-13T22:30:03.916Z,1.37
2017-12-13T22:32:33.167Z,1.30
2017-12-13T22:35:02.430Z,1.20
2017-12-13T22:37:31.684Z,1.25
2017-12-13T22:40:00.950Z,1.37
2017-12-13T22:42:30.980Z,1.73
2017-12-13T22:45:01.003Z,1.80
2017-12-13T22:47:30.322Z,1.35
2017-12-13T22:49:59.563Z,1.20
2017-12-13T22:52:28.814Z,1.40
2017-12-13T22:54:58.069Z,1.20
2017-12-13T22:57:27.324Z,1.20
2017-12-13T22:59:56.587Z,1.48
2017-12-13T23:02:26.618Z,1.40
2017-12-13T23:04:55.877Z,1.20
2017-12-13T23:07:25.124Z,1.33
2017-12-13T23:09:54.362Z,1.30
2017-12-13T23:12:23.623Z,1.08
2017-12-13T23:14:52.893Z,1.10
2017-12-13T23:17:22.146Z,1.30
2017-12-13T23:19:51.382Z,1.20
2017-12-13T23:22:20.697Z,1.20
2017-12-13T23:24:50.704Z,1.30
2017-12-13T23:27:19.981Z,1.52
2017-12-13T23:29:49.226Z,1.20
2017-12-13T23:32:18.479Z,1.25
2017-12-13T23:34:47.719Z,1.20
2017-12-13T23:37:16.970Z,1.50
2017-12-13T23:39:46.218Z,1.27
2017-12-13T23:42:15.470Z,1.37
2017-12-13T23:44:44.740Z,1.50
2017-12-13T23:47:14.005Z,1.12
2017-12-13T23:49:44.007Z,1.37
2017-12-13T23:52:13.239Z,1.40
2017-12-13T23:54:42.528Z,1.77
2017-12-13T23:57:12.573Z,1.17
2017-12-13T23:59:43.107Z,1.40
